Time;durP1;ratioP1;P1;durP2;ratioP2;P2;SDS_P1;SDS_P2;PMS_P1;PMS_P2;Temp;Humidity;BMP_temperature;BMP_pressure;BME280_temperature;BME280_humidity;BME280_pressure;Samples;Min_cycle;Max_cycle;Signal;HPM_P1;HPM_P2
2021/01/21 00:01:50;;;;;;;11.43;4.90;;;6.20;99.90;;;;;;4904164;29;20219;-86
2021/01/21 00:04:18;;;;;;;5.33;4.00;;;6.10;99.90;;;;;;4900378;29;20469;-87
2021/01/21 00:06:44;;;;;;;5.93;4.30;;;6.10;99.90;;;;;;4917183;29;20243;-85
2021/01/21 00:09:10;;;;;;;5.33;3.67;;;6.10;99.90;;;;;;4885211;29;20467;-87
2021/01/21 00:11:35;;;;;;;5.87;3.80;;;6.20;99.90;;;;;;4934620;29;22835;-86
2021/01/21 00:14:01;;;;;;;7.77;3.57;;;6.20;99.90;;;;;;4936326;29;20708;-85
2021/01/21 00:16:27;;;;;;;4.30;3.73;;;6.30;99.90;;;;;;4919069;29;20286;-85
2021/01/21 00:18:53;;;;;;;8.20;3.90;;;6.40;99.90;;;;;;4902099;29;20537;-85
2021/01/21 00:21:18;;;;;;;5.40;4.30;;;6.50;99.90;;;;;;4918570;29;20535;-87
2021/01/21 00:23:44;;;;;;;5.30;4.30;;;6.50;99.90;;;;;;4918328;29;20222;-85
2021/01/21 00:26:10;;;;;;;9.37;4.90;;;6.60;99.90;;;;;;4901959;29;20208;-85
2021/01/21 00:28:38;;;;;;;5.43;4.00;;;6.60;99.90;;;;;;4936694;29;20184;-84
2021/01/21 00:31:04;;;;;;;6.50;4.30;;;6.70;99.90;;;;;;4914773;29;20279;-84
2021/01/21 00:33:30;;;;;;;5.10;4.00;;;6.70;99.90;;;;;;4919464;29;20508;-83
2021/01/21 00:35:55;;;;;;;4.73;4.27;;;6.70;99.90;;;;;;4932896;29;20200;-86
2021/01/21 00:38:23;;;;;;;7.87;4.87;;;6.80;99.90;;;;;;4916413;29;20203;-84
2021/01/21 00:40:49;;;;;;;6.00;4.40;;;6.90;99.90;;;;;;4933270;29;20219;-87
2021/01/21 00:43:15;;;;;;;6.80;4.40;;;6.90;99.90;;;;;;4903568;29;20471;-86
2021/01/21 00:45:40;;;;;;;5.80;3.93;;;6.80;99.90;;;;;;4916962;29;20190;-85
2021/01/21 00:48:06;;;;;;;6.17;4.50;;;6.90;99.90;;;;;;4915267;29;20207;-87
2021/01/21 00:50:32;;;;;;;5.50;4.13;;;6.80;99.90;;;;;;4935411;29;20188;-85
2021/01/21 00:52:58;;;;;;;5.97;4.20;;;7.00;99.90;;;;;;4915564;29;20466;-85
2021/01/21 00:55:23;;;;;;;11.80;4.30;;;7.00;99.90;;;;;;4917660;29;20307;-85
2021/01/21 00:57:49;;;;;;;5.37;3.87;;;6.90;99.90;;;;;;4915079;29;20199;-86
2021/01/21 01:00:15;;;;;;;8.80;5.50;;;6.90;99.90;;;;;;4932688;29;20208;-85
2021/01/21 01:02:41;;;;;;;7.67;4.77;;;6.80;99.90;;;;;;4916858;29;20223;-84
2021/01/21 01:05:08;;;;;;;8.90;4.70;;;6.80;99.90;;;;;;4918926;29;20490;-86
2021/01/21 01:07:33;;;;;;;8.37;5.30;;;6.70;99.90;;;;;;4915691;29;20188;-86
2021/01/21 01:09:59;;;;;;;6.03;4.77;;;6.70;99.90;;;;;;4916023;29;20824;-86
2021/01/21 01:12:25;;;;;;;6.00;4.87;;;6.60;99.90;;;;;;4917046;29;20653;-85
2021/01/21 01:14:50;;;;;;;7.50;4.43;;;6.60;99.90;;;;;;4916104;29;20184;-85
2021/01/21 01:17:19;;;;;;;8.57;4.97;;;6.50;99.90;;;;;;4916741;29;20247;-86
2021/01/21 01:19:45;;;;;;;7.40;5.10;;;6.50;99.90;;;;;;4932046;29;20462;-86
2021/01/21 01:22:12;;;;;;;6.00;5.00;;;6.50;99.90;;;;;;4903170;29;20470;-86
2021/01/21 01:24:38;;;;;;;6.73;4.60;;;6.40;99.90;;;;;;4897629;29;20291;-86
2021/01/21 01:27:04;;;;;;;7.43;4.20;;;6.40;99.90;;;;;;4886082;29;20498;-87
2021/01/21 01:29:31;;;;;;;6.40;4.93;;;6.40;99.90;;;;;;4901672;29;20884;-86
2021/01/21 01:32:00;;;;;;;6.00;4.80;;;6.40;99.90;;;;;;4932826;29;20196;-86
2021/01/21 01:34:28;;;;;;;7.03;4.60;;;6.40;99.90;;;;;;4902804;29;20456;-84
2021/01/21 01:36:54;;;;;;;8.17;4.77;;;6.30;99.90;;;;;;4932756;29;21767;-85
2021/01/21 01:39:21;;;;;;;6.30;4.20;;;6.40;99.90;;;;;;4918675;29;20427;-86
2021/01/21 01:41:46;;;;;;;6.63;4.50;;;6.40;99.90;;;;;;4898771;29;20887;-86
2021/01/21 01:44:12;;;;;;;7.70;4.67;;;6.40;99.90;;;;;;4903635;29;20503;-87
2021/01/21 01:46:38;;;;;;;5.67;4.60;;;6.50;99.90;;;;;;4930438;29;20600;-85
2021/01/21 01:49:04;;;;;;;6.07;4.70;;;6.40;99.90;;;;;;4917562;29;20191;-86
2021/01/21 01:51:29;;;;;;;5.67;4.60;;;6.40;99.90;;;;;;4916234;29;20445;-86
2021/01/21 01:53:57;;;;;;;8.87;5.00;;;6.40;99.90;;;;;;4899801;29;20716;-84
2021/01/21 01:56:24;;;;;;;9.73;5.93;;;6.50;99.90;;;;;;4932991;29;20195;-86
2021/01/21 01:58:51;;;;;;;6.80;4.50;;;6.50;99.90;;;;;;4899528;29;20991;-86
2021/01/21 02:01:18;;;;;;;6.67;4.47;;;6.60;99.90;;;;;;4935811;29;20799;-86
2021/01/21 02:03:44;;;;;;;8.63;5.10;;;6.50;99.90;;;;;;4931606;28;20542;-84
2021/01/21 02:06:09;;;;;;;9.03;6.03;;;6.50;99.90;;;;;;4916664;29;21339;-86
2021/01/21 02:08:35;;;;;;;8.17;4.97;;;6.50;99.90;;;;;;4930248;29;20176;-84
2021/01/21 02:11:14;;;;;;;8.70;5.60;;;6.40;99.90;;;;;;4930454;29;20207;-85
2021/01/21 02:13:52;;;;;;;7.70;5.53;;;6.40;99.90;;;;;;4929762;29;20799;-86
2021/01/21 02:16:37;;;;;;;12.13;5.60;;;6.50;99.90;;;;;;4914104;29;20431;-85
2021/01/21 02:19:44;;;;;;;7.77;5.97;;;6.40;99.90;;;;;;4914692;29;20440;-87
2021/01/21 02:22:16;;;;;;;7.00;4.73;;;6.30;99.90;;;;;;4913181;29;20475;-86
2021/01/21 02:25:03;;;;;;;7.13;5.30;;;6.30;99.90;;;;;;4915402;29;21063;-84
2021/01/21 02:27:45;;;;;;;10.27;5.70;;;6.30;99.90;;;;;;4930322;29;20462;-85
2021/01/21 02:30:30;;;;;;;7.23;5.00;;;6.20;99.90;;;;;;4911543;29;20451;-85
2021/01/21 02:33:22;;;;;;;6.60;6.00;;;6.20;99.90;;;;;;4915326;29;20439;-83
2021/01/21 02:35:51;;;;;;;8.37;5.30;;;6.20;99.90;;;;;;4928306;29;20443;-85
2021/01/21 02:38:19;;;;;;;6.93;5.43;;;6.10;99.90;;;;;;4916950;29;20502;-84
2021/01/21 02:40:48;;;;;;;7.43;5.00;;;6.20;99.90;;;;;;4913903;29;21008;-84
2021/01/21 02:43:13;;;;;;;12.33;5.47;;;6.20;99.90;;;;;;4914590;29;20498;-85
2021/01/21 02:45:39;;;;;;;10.53;5.20;;;6.20;99.90;;;;;;4912838;29;20436;-85
2021/01/21 02:48:05;;;;;;;7.30;5.00;;;6.20;99.90;;;;;;4916286;29;20259;-83
2021/01/21 02:50:31;;;;;;;6.47;5.40;;;6.20;99.90;;;;;;4930062;29;20660;-86
2021/01/21 02:52:59;;;;;;;7.07;4.60;;;6.10;99.90;;;;;;4913295;29;20498;-84
2021/01/21 02:55:43;;;;;;;7.20;5.20;;;6.10;99.90;;;;;;4930219;29;20448;-84
2021/01/21 02:58:30;;;;;;;10.73;6.10;;;6.20;99.90;;;;;;4932018;29;20458;-83
2021/01/21 03:01:00;;;;;;;8.60;5.70;;;6.20;99.90;;;;;;4927556;29;20604;-85
2021/01/21 03:03:30;;;;;;;9.53;5.60;;;6.20;99.90;;;;;;4928590;29;20459;-86
2021/01/21 03:05:58;;;;;;;5.80;4.57;;;6.20;99.90;;;;;;4915424;29;20543;-86
2021/01/21 03:08:27;;;;;;;5.60;4.40;;;6.10;99.90;;;;;;4930045;29;20433;-86
2021/01/21 03:11:10;;;;;;;6.60;5.30;;;6.10;99.90;;;;;;4913897;29;20474;-83
2021/01/21 03:13:47;;;;;;;7.80;4.93;;;6.10;99.90;;;;;;4927681;29;20463;-84
2021/01/21 03:16:18;;;;;;;8.43;5.80;;;6.10;99.90;;;;;;4915362;29;20430;-86
2021/01/21 03:18:45;;;;;;;10.03;6.20;;;6.00;99.90;;;;;;4910074;29;20438;-83
2021/01/21 03:21:10;;;;;;;5.80;4.63;;;6.00;99.90;;;;;;4913080;29;20475;-84
2021/01/21 03:23:42;;;;;;;10.00;4.77;;;6.00;99.90;;;;;;4913658;29;20505;-86
2021/01/21 03:26:10;;;;;;;6.00;4.70;;;6.00;99.90;;;;;;4933296;29;20735;-82
2021/01/21 03:28:36;;;;;;;5.13;4.30;;;6.10;99.90;;;;;;4926733;29;20499;-85
2021/01/21 03:31:02;;;;;;;6.57;5.20;;;6.10;99.90;;;;;;4917498;29;21163;-86
2021/01/21 03:33:28;;;;;;;7.57;4.80;;;6.30;99.90;;;;;;4926762;29;20455;-85
2021/01/21 03:35:53;;;;;;;8.60;5.07;;;6.30;99.90;;;;;;4911956;29;20206;-83
2021/01/21 03:38:19;;;;;;;8.33;4.70;;;6.40;99.90;;;;;;4913454;29;20194;-86
2021/01/21 03:40:45;;;;;;;5.63;4.67;;;6.40;99.90;;;;;;4915058;29;20514;-84
2021/01/21 03:43:10;;;;;;;7.77;4.40;;;6.40;99.90;;;;;;4896509;29;20220;-85
2021/01/21 03:45:36;;;;;;;7.40;4.87;;;6.40;99.90;;;;;;4915378;29;20208;-82
2021/01/21 03:48:02;;;;;;;9.40;4.90;;;6.40;99.90;;;;;;4927367;29;20197;-83
2021/01/21 03:50:27;;;;;;;6.23;4.50;;;6.30;99.90;;;;;;4914951;29;20216;-86
2021/01/21 03:52:53;;;;;;;5.40;3.80;;;6.20;99.90;;;;;;4913044;29;20231;-83
2021/01/21 03:55:19;;;;;;;9.73;4.37;;;6.30;99.90;;;;;;4915898;29;20179;-86
2021/01/21 03:57:44;;;;;;;3.60;2.83;;;6.40;99.90;;;;;;4901128;29;20196;-86
2021/01/21 04:00:10;;;;;;;5.10;3.30;;;6.60;99.90;;;;;;4935798;29;20690;-85
2021/01/21 04:02:36;;;;;;;6.17;3.53;;;6.90;99.90;;;;;;4915484;29;20180;-85
2021/01/21 04:05:02;;;;;;;4.80;3.90;;;7.00;99.90;;;;;;4916789;29;20447;-86
2021/01/21 04:07:28;;;;;;;5.00;3.17;;;7.20;99.90;;;;;;4915928;29;20199;-87
2021/01/21 04:09:53;;;;;;;5.23;3.33;;;7.40;99.90;;;;;;4901478;29;20192;-85
2021/01/21 04:12:19;;;;;;;5.37;3.20;;;7.60;99.90;;;;;;4915989;29;20188;-84
2021/01/21 04:14:45;;;;;;;4.20;3.60;;;7.80;99.90;;;;;;4902269;29;20717;-85
2021/01/21 04:17:13;;;;;;;3.60;3.30;;;7.90;99.90;;;;;;4914250;29;20877;-84
2021/01/21 04:19:39;;;;;;;7.43;4.00;;;8.10;99.90;;;;;;4917850;29;20223;-85
2021/01/21 04:22:04;;;;;;;5.93;3.73;;;8.20;99.90;;;;;;4932060;29;20473;-82
2021/01/21 04:24:33;;;;;;;4.27;3.30;;;8.30;99.90;;;;;;4916287;29;20735;-84
2021/01/21 04:26:58;;;;;;;4.07;3.07;;;8.40;99.90;;;;;;4916470;29;20188;-85
2021/01/21 04:29:24;;;;;;;4.23;2.80;;;8.60;99.90;;;;;;4915884;29;20491;-83
2021/01/21 04:32:05;;;;;;;3.60;3.00;;;8.60;99.90;;;;;;4901079;29;20200;-85
2021/01/21 04:34:30;;;;;;;5.83;3.10;;;8.50;99.90;;;;;;4932509;29;20227;-85
2021/01/21 04:36:56;;;;;;;3.60;2.80;;;8.60;99.90;;;;;;4934506;29;20427;-85
2021/01/21 04:39:25;;;;;;;4.73;2.97;;;8.60;99.90;;;;;;4917093;29;20287;-84
2021/01/21 04:41:51;;;;;;;5.40;2.50;;;8.60;99.90;;;;;;4931261;29;20215;-85
2021/01/21 04:44:16;;;;;;;4.87;2.57;;;8.70;99.90;;;;;;4934270;29;20464;-86
2021/01/21 04:46:42;;;;;;;2.67;2.00;;;8.80;99.90;;;;;;4916776;29;20183;-84
2021/01/21 04:49:08;;;;;;;5.03;2.63;;;8.90;99.90;;;;;;4919447;29;20188;-85
2021/01/21 04:51:37;;;;;;;3.53;2.10;;;9.00;99.90;;;;;;4913004;29;20184;-84
2021/01/21 04:54:04;;;;;;;3.67;2.93;;;9.20;99.90;;;;;;4914579;29;20564;-85
2021/01/21 04:56:36;;;;;;;3.23;2.57;;;9.40;99.90;;;;;;4934607;29;20427;-84
2021/01/21 04:59:03;;;;;;;2.93;2.10;;;9.50;99.90;;;;;;4915051;29;20523;-85
2021/01/21 05:01:30;;;;;;;1.83;1.50;;;9.70;99.90;;;;;;4916451;29;20470;-85
2021/01/21 05:03:59;;;;;;;3.60;2.27;;;9.90;99.90;;;;;;4934961;29;20455;-85
2021/01/21 05:06:25;;;;;;;2.10;1.60;;;10.00;99.90;;;;;;4934008;29;20805;-87
2021/01/21 05:08:51;;;;;;;2.63;1.57;;;10.10;99.90;;;;;;4915965;29;20440;-86
2021/01/21 05:11:17;;;;;;;2.83;1.40;;;10.40;99.90;;;;;;4917216;29;20457;-84
2021/01/21 05:13:43;;;;;;;1.50;1.30;;;10.80;97.20;;;;;;4916226;29;20455;-86
2021/01/21 05:16:09;;;;;;;4.47;2.00;;;11.30;94.50;;;;;;4914784;29;20711;-87
2021/01/21 05:18:38;;;;;;;1.60;1.50;;;11.50;93.00;;;;;;4932892;29;20446;-85
2021/01/21 05:21:06;;;;;;;3.23;2.07;;;11.80;90.70;;;;;;4917311;29;20464;-84
2021/01/21 05:23:32;;;;;;;1.40;1.30;;;11.90;89.80;;;;;;4901731;29;20456;-85
2021/01/21 05:25:59;;;;;;;1.50;1.20;;;12.10;87.90;;;;;;4918042;29;20749;-85
2021/01/21 05:28:27;;;;;;;1.63;1.53;;;12.20;86.40;;;;;;4930937;29;20433;-83
2021/01/21 05:30:53;;;;;;;1.53;1.30;;;12.30;84.50;;;;;;4919451;29;20424;-86
2021/01/21 05:33:21;;;;;;;2.10;1.30;;;12.50;82.50;;;;;;4931116;29;20446;-87
2021/01/21 05:35:53;;;;;;;1.60;1.20;;;12.60;81.30;;;;;;4932450;29;20439;-86
2021/01/21 05:38:21;;;;;;;3.10;1.50;;;12.80;80.10;;;;;;4930511;29;20503;-85
2021/01/21 05:40:51;;;;;;;2.27;1.20;;;12.80;79.90;;;;;;4932828;29;20464;-84
2021/01/21 05:43:17;;;;;;;1.60;1.20;;;12.80;79.50;;;;;;4912903;29;20474;-85
2021/01/21 05:45:46;;;;;;;1.40;1.10;;;12.90;78.60;;;;;;4916925;29;20412;-85
2021/01/21 05:48:13;;;;;;;3.03;1.17;;;12.90;78.60;;;;;;4911944;29;20439;-82
2021/01/21 05:50:41;;;;;;;2.10;1.33;;;13.00;77.60;;;;;;4918318;29;20506;-84
2021/01/21 05:53:09;;;;;;;2.03;1.30;;;13.00;78.00;;;;;;4913122;29;20463;-85
2021/01/21 05:55:39;;;;;;;1.50;1.30;;;12.90;78.50;;;;;;4933046;29;20420;-83
2021/01/21 05:58:10;;;;;;;1.50;1.20;;;12.80;78.50;;;;;;4914025;29;20467;-83
2021/01/21 06:00:38;;;;;;;1.93;1.50;;;12.80;78.80;;;;;;4917052;29;20466;-83
2021/01/21 06:03:04;;;;;;;2.00;1.37;;;12.90;78.80;;;;;;4912164;29;20484;-86
2021/01/21 06:05:32;;;;;;;1.30;1.00;;;13.00;79.30;;;;;;4929971;29;20428;-84
2021/01/21 06:07:57;;;;;;;1.70;1.07;;;13.00;79.80;;;;;;4929719;29;20491;-85
2021/01/21 06:10:25;;;;;;;1.53;1.17;;;13.10;80.00;;;;;;4914385;29;20412;-84
2021/01/21 06:12:53;;;;;;;1.30;1.20;;;13.00;80.40;;;;;;4914188;29;20298;-84
2021/01/21 06:15:20;;;;;;;1.77;1.20;;;13.10;81.00;;;;;;4936210;29;20481;-84
2021/01/21 06:17:47;;;;;;;1.67;1.40;;;13.00;81.30;;;;;;4915801;29;21122;-84
2021/01/21 06:20:14;;;;;;;1.50;1.10;;;13.00;82.00;;;;;;4915719;29;20427;-86
2021/01/21 06:22:43;;;;;;;1.50;1.20;;;13.00;82.70;;;;;;4929378;29;20444;-86
2021/01/21 06:25:12;;;;;;;1.57;1.33;;;13.00;83.00;;;;;;4912388;29;20504;-85
2021/01/21 06:27:40;;;;;;;1.40;1.17;;;13.00;83.60;;;;;;4933299;29;20466;-85
2021/01/21 06:30:10;;;;;;;1.40;1.20;;;13.00;84.10;;;;;;4933757;29;20439;-85
2021/01/21 06:32:53;;;;;;;2.13;1.20;;;13.00;84.60;;;;;;4900473;29;20616;-85
2021/01/21 06:35:23;;;;;;;1.63;1.33;;;13.10;85.80;;;;;;4914321;29;20427;-86
2021/01/21 06:37:55;;;;;;;6.13;1.50;;;13.10;86.60;;;;;;4912689;29;20902;-85
2021/01/21 06:40:24;;;;;;;1.40;1.20;;;13.10;87.70;;;;;;4928809;29;20471;-84
2021/01/21 06:43:04;;;;;;;1.70;1.30;;;13.10;88.70;;;;;;4917214;29;21265;-84
2021/01/21 06:45:31;;;;;;;1.60;1.20;;;13.10;89.50;;;;;;4928524;29;20419;-85
2021/01/21 06:47:58;;;;;;;2.43;1.60;;;13.10;90.20;;;;;;4912878;29;20470;-86
2021/01/21 06:50:30;;;;;;;1.40;1.27;;;13.10;91.00;;;;;;4914336;29;20450;-85
2021/01/21 06:53:07;;;;;;;1.60;1.50;;;13.00;91.20;;;;;;4931067;29;20458;-83
2021/01/21 06:55:40;;;;;;;1.53;1.37;;;13.10;91.80;;;;;;4934248;29;20776;-85
2021/01/21 06:58:07;;;;;;;4.50;1.10;;;13.10;91.80;;;;;;4913433;29;20468;-86
2021/01/21 07:00:43;;;;;;;1.37;1.27;;;13.10;92.30;;;;;;4930551;29;20468;-85
2021/01/21 07:03:35;;;;;;;3.10;1.40;;;13.00;92.80;;;;;;4894846;29;20475;-87
2021/01/21 07:06:02;;;;;;;1.80;1.10;;;13.00;93.10;;;;;;4928084;29;20451;-85
2021/01/21 07:08:29;;;;;;;3.23;1.20;;;12.90;93.70;;;;;;4911787;29;20432;-87
2021/01/21 07:11:01;;;;;;;3.87;1.50;;;13.00;94.40;;;;;;4934811;29;20804;-85
2021/01/21 07:13:30;;;;;;;2.80;1.20;;;13.00;94.80;;;;;;4911963;29;21072;-85
2021/01/21 07:16:03;;;;;;;2.40;1.47;;;13.00;95.20;;;;;;4930274;29;20443;-86
2021/01/21 07:18:33;;;;;;;1.33;1.17;;;12.90;95.80;;;;;;4917139;29;20431;-85
2021/01/21 07:20:59;;;;;;;1.37;1.20;;;12.90;96.20;;;;;;4930601;29;20550;-86
2021/01/21 07:23:35;;;;;;;1.60;1.27;;;12.90;97.10;;;;;;4930885;29;21053;-85
2021/01/21 07:26:36;;;;;;;2.13;1.10;;;12.80;97.60;;;;;;4907883;29;20203;-85
2021/01/21 07:29:12;;;;;;;1.27;1.17;;;12.80;98.10;;;;;;4929702;29;20758;-87
2021/01/21 07:31:56;;;;;;;2.03;1.00;;;12.80;98.30;;;;;;4935646;29;20454;-85
2021/01/21 07:34:29;;;;;;;1.30;1.10;;;12.80;97.90;;;;;;4933477;28;20579;-85
2021/01/21 07:37:17;;;;;;;1.40;1.30;;;12.90;97.60;;;;;;4934996;29;20443;-85
2021/01/21 07:39:56;;;;;;;1.30;1.10;;;12.80;97.60;;;;;;4931404;29;20527;-84
2021/01/21 07:42:32;;;;;;;1.27;1.10;;;12.80;97.80;;;;;;4917204;29;20463;-89
2021/01/21 07:45:20;;;;;;;1.40;1.00;;;12.80;98.10;;;;;;4905105;29;20470;-85
2021/01/21 07:47:48;;;;;;;1.30;1.20;;;12.80;98.10;;;;;;4932054;29;21508;-86
2021/01/21 07:50:21;;;;;;;1.87;1.20;;;12.90;98.20;;;;;;4915428;29;20454;-87
2021/01/21 07:52:47;;;;;;;2.40;1.33;;;12.90;98.50;;;;;;4928686;29;20454;-85
2021/01/21 07:55:14;;;;;;;2.33;1.30;;;13.00;98.70;;;;;;4916382;29;20589;-87
2021/01/21 07:57:43;;;;;;;1.73;1.30;;;13.10;98.90;;;;;;4917535;29;20534;-85
2021/01/21 08:00:12;;;;;;;1.77;1.63;;;13.20;99.20;;;;;;4914353;29;20452;-85
2021/01/21 08:02:49;;;;;;;2.00;1.30;;;13.30;99.50;;;;;;4917105;29;21015;-85
2021/01/21 08:05:23;;;;;;;3.73;1.10;;;13.30;99.60;;;;;;4929460;29;20826;-87
2021/01/21 08:07:55;;;;;;;1.70;1.30;;;13.40;99.90;;;;;;4923226;29;20475;-87
2021/01/21 08:11:28;;;;;;;1.93;1.30;;;13.40;99.90;;;;;;4918636;29;20439;-88
2021/01/21 08:14:25;;;;;;;1.30;1.00;;;13.40;99.90;;;;;;4916114;29;20487;-86
2021/01/21 08:17:03;;;;;;;1.40;1.00;;;13.40;99.90;;;;;;4916085;29;20446;-85
2021/01/21 08:19:41;;;;;;;1.73;1.27;;;13.40;99.90;;;;;;4927655;29;20448;-86
2021/01/21 08:22:07;;;;;;;1.33;1.10;;;13.40;99.90;;;;;;4923003;29;20484;-86
2021/01/21 08:25:10;;;;;;;1.30;1.00;;;13.40;99.90;;;;;;4922013;29;20466;-85
2021/01/21 08:27:53;;;;;;;1.20;0.90;;;13.30;99.90;;;;;;4918237;29;20455;-85
2021/01/21 08:34:36;;;;;;;2.23;1.40;;;13.30;99.90;;;;;;4918822;29;20547;-87
2021/01/21 08:37:08;;;;;;;1.60;1.20;;;13.20;99.90;;;;;;4933499;29;20501;-87
2021/01/21 08:40:07;;;;;;;1.40;1.20;;;13.20;99.90;;;;;;4918518;29;21114;-86
2021/01/21 08:43:21;;;;;;;;;;;;;;;;;;;;;
2021/01/21 08:49:41;;;;;;;1.30;1.20;;;13.30;99.90;;;;;;4886260;29;20434;-86
2021/01/21 08:55:21;;;;;;;2.77;1.10;;;13.30;99.90;;;;;;4926919;29;20447;-85
2021/01/21 08:58:36;;;;;;;1.70;1.20;;;13.40;99.90;;;;;;4921930;29;20451;-86
2021/01/21 09:01:43;;;;;;;1.47;1.00;;;13.40;99.90;;;;;;4921030;29;20833;-84
2021/01/21 09:11:47;;;;;;;1.87;1.33;;;13.40;99.90;;;;;;4818300;29;20467;-84
2021/01/21 09:28:19;;;;;;;1.30;1.10;;;14.10;99.90;;;;;;4972267;28;20424;-86
2021/01/21 09:31:51;;;;;;;;;;;;;;;;;;;;;
2021/01/21 09:34:55;;;;;;;3.73;1.30;;;14.30;99.90;;;;;;4927609;29;20465;-86
2021/01/21 09:37:50;;;;;;;1.53;1.20;;;14.30;99.90;;;;;;4910488;29;20432;-85
2021/01/21 09:40:32;;;;;;;1.57;1.30;;;14.40;99.90;;;;;;4923118;29;20447;-86
2021/01/21 09:43:58;;;;;;;;;;;;;;;;;;;;;
2021/01/21 09:47:08;;;;;;;1.30;1.20;;;14.20;99.90;;;;;;4889520;29;20443;-86
2021/01/21 09:50:15;;;;;;;1.17;0.90;;;14.20;99.90;;;;;;4898655;28;20487;-85
2021/01/21 09:52:42;;;;;;;1.43;1.13;;;14.00;99.90;;;;;;4933655;28;20506;-83
2021/01/21 09:55:22;;;;;;;1.37;1.27;;;13.90;99.90;;;;;;4933042;28;20461;-84
2021/01/21 09:58:22;;;;;;;1.20;0.90;;;13.70;99.90;;;;;;4934703;28;20435;-87
2021/01/21 10:01:11;;;;;;;1.50;1.10;;;13.40;99.90;;;;;;4937862;28;20541;-87
2021/01/21 10:03:37;;;;;;;1.67;1.20;;;13.10;99.90;;;;;;4918630;28;20494;-89
2021/01/21 10:06:14;;;;;;;3.23;1.40;;;13.00;99.90;;;;;;4925309;28;20430;-87
2021/01/21 10:08:40;;;;;;;1.33;1.20;;;13.10;99.90;;;;;;4933687;28;20439;-83
2021/01/21 10:11:09;;;;;;;2.10;1.30;;;13.00;99.90;;;;;;4920520;28;20866;-84
2021/01/21 10:13:37;;;;;;;3.67;1.30;;;12.80;99.90;;;;;;4945515;28;20455;-84
2021/01/21 10:16:03;;;;;;;2.83;1.40;;;12.80;99.90;;;;;;4930864;28;20479;-87
2021/01/21 10:18:29;;;;;;;1.50;1.37;;;12.70;99.90;;;;;;4910590;29;20447;-80
2021/01/21 10:20:54;;;;;;;1.70;1.60;;;12.50;99.90;;;;;;4928800;28;20473;-80
2021/01/21 10:23:20;;;;;;;1.20;1.00;;;12.40;99.90;;;;;;4913676;28;20211;-78
2021/01/21 10:25:48;;;;;;;1.40;1.10;;;12.40;99.90;;;;;;4927098;28;20898;-84
2021/01/21 10:28:17;;;;;;;1.53;1.03;;;12.50;99.90;;;;;;4930635;28;20206;-84
2021/01/21 10:30:43;;;;;;;1.10;0.93;;;12.50;99.90;;;;;;4946479;28;20447;-84
2021/01/21 10:33:08;;;;;;;1.40;1.27;;;12.70;99.90;;;;;;4930302;28;20478;-84
2021/01/21 10:35:34;;;;;;;1.30;1.10;;;12.80;99.90;;;;;;4926130;28;20449;-84
2021/01/21 10:38:03;;;;;;;1.20;1.10;;;12.90;99.90;;;;;;4949222;28;20254;-82
2021/01/21 10:40:29;;;;;;;1.70;1.50;;;13.00;99.90;;;;;;4916828;29;20214;-82
2021/01/21 10:42:54;;;;;;;1.40;1.20;;;13.10;99.90;;;;;;4935313;28;20476;-84
2021/01/21 10:45:20;;;;;;;1.40;1.30;;;13.20;99.90;;;;;;4916672;28;20192;-85
2021/01/21 10:47:45;;;;;;;1.57;1.10;;;13.30;99.90;;;;;;4917404;28;20735;-85
2021/01/21 10:50:15;;;;;;;1.60;1.30;;;13.50;99.90;;;;;;4932570;28;20202;-84
2021/01/21 10:52:40;;;;;;;1.20;1.10;;;13.60;99.90;;;;;;4930329;28;20718;-87
2021/01/21 10:55:07;;;;;;;1.40;1.30;;;13.80;99.90;;;;;;4955135;28;20419;-86
2021/01/21 10:57:32;;;;;;;1.40;1.27;;;13.90;99.90;;;;;;4915350;28;20243;-86
2021/01/21 10:59:58;;;;;;;2.07;1.40;;;14.10;99.90;;;;;;4918270;28;20423;-84
2021/01/21 11:02:23;;;;;;;2.40;1.30;;;14.00;99.90;;;;;;4930357;28;20237;-87
2021/01/21 11:04:49;;;;;;;1.63;1.20;;;14.10;99.90;;;;;;4952203;28;20183;-85
2021/01/21 11:07:15;;;;;;;1.20;1.10;;;14.00;99.90;;;;;;4951262;28;20183;-87
2021/01/21 11:09:40;;;;;;;2.10;1.60;;;13.90;99.90;;;;;;4954355;28;20267;-86
2021/01/21 11:12:07;;;;;;;1.50;1.10;;;13.90;99.90;;;;;;4954246;28;20187;-85
2021/01/21 11:14:34;;;;;;;1.73;1.37;;;13.90;99.90;;;;;;4937999;28;20223;-83
2021/01/21 11:16:59;;;;;;;1.67;1.33;;;13.90;99.90;;;;;;4940694;28;20947;-83
2021/01/21 11:19:25;;;;;;;1.53;1.10;;;14.10;99.90;;;;;;4934881;28;20446;-88
2021/01/21 11:21:57;;;;;;;1.70;1.30;;;14.10;99.90;;;;;;4938193;28;20214;-86
2021/01/21 11:24:23;;;;;;;4.50;1.40;;;14.00;99.90;;;;;;4949983;28;20212;-85
2021/01/21 11:26:48;;;;;;;2.70;1.10;;;14.00;99.90;;;;;;4939852;28;20887;-83
2021/01/21 11:29:14;;;;;;;1.70;1.50;;;14.00;99.90;;;;;;4952760;28;20250;-83
2021/01/21 11:31:40;;;;;;;1.50;1.13;;;14.10;99.90;;;;;;4940668;28;20573;-85
2021/01/21 11:34:06;;;;;;;1.40;1.30;;;14.00;99.90;;;;;;4924408;28;20231;-84
2021/01/21 11:36:31;;;;;;;1.30;1.10;;;14.00;99.90;;;;;;4924959;28;20210;-84
2021/01/21 11:38:57;;;;;;;1.30;1.10;;;13.90;99.90;;;;;;4933462;28;20218;-85
2021/01/21 11:41:23;;;;;;;1.63;1.30;;;13.80;99.90;;;;;;4923283;28;21210;-84
2021/01/21 11:43:49;;;;;;;1.70;1.40;;;13.70;99.90;;;;;;4940305;28;20776;-86
2021/01/21 11:46:14;;;;;;;1.57;1.30;;;13.60;99.90;;;;;;4921041;28;20530;-86
2021/01/21 11:48:40;;;;;;;1.77;1.40;;;13.60;99.90;;;;;;4938236;28;20262;-86
2021/01/21 11:51:09;;;;;;;1.30;1.10;;;13.50;99.90;;;;;;4932223;28;20246;-86
2021/01/21 11:53:34;;;;;;;1.33;1.23;;;13.40;99.90;;;;;;4953242;28;20574;-83
2021/01/21 11:56:01;;;;;;;1.80;1.50;;;13.40;99.90;;;;;;4935936;28;20438;-86
2021/01/21 11:58:27;;;;;;;1.80;1.20;;;13.30;99.90;;;;;;4952037;28;20212;-84
2021/01/21 12:00:53;;;;;;;2.30;1.43;;;13.30;99.90;;;;;;4952581;28;20487;-85
2021/01/21 12:03:22;;;;;;;1.40;1.20;;;13.30;99.90;;;;;;4934706;28;20270;-86
2021/01/21 12:05:50;;;;;;;1.60;1.20;;;13.30;99.90;;;;;;4937051;28;20186;-87
2021/01/21 12:08:16;;;;;;;1.70;1.30;;;13.20;99.90;;;;;;4950524;28;20521;-85
2021/01/21 12:10:42;;;;;;;1.20;1.00;;;13.30;99.90;;;;;;4936329;28;20478;-84
2021/01/21 12:13:07;;;;;;;1.70;1.30;;;13.30;99.90;;;;;;4930949;28;20251;-84
2021/01/21 12:15:33;;;;;;;1.60;1.27;;;13.30;99.90;;;;;;4936326;28;20223;-86
2021/01/21 12:17:59;;;;;;;3.53;2.43;;;13.30;99.90;;;;;;4932652;28;20257;-84
2021/01/21 12:20:25;;;;;;;2.17;1.40;;;13.20;99.90;;;;;;4936784;28;20187;-85
2021/01/21 12:22:50;;;;;;;4.70;1.60;;;13.10;99.90;;;;;;4952636;28;20270;-84
2021/01/21 12:25:16;;;;;;;2.47;1.23;;;12.80;99.90;;;;;;4934788;29;20653;-84
2021/01/21 12:27:42;;;;;;;1.60;1.30;;;12.40;99.90;;;;;;4933683;28;20517;-86
2021/01/21 12:30:08;;;;;;;2.13;1.50;;;12.20;99.90;;;;;;4933278;28;20218;-85
2021/01/21 12:32:34;;;;;;;2.90;1.70;;;12.10;99.90;;;;;;4937936;28;20187;-84
2021/01/21 12:35:00;;;;;;;1.60;1.37;;;12.00;99.90;;;;;;4932224;28;20434;-84
2021/01/21 12:37:26;;;;;;;1.60;1.20;;;11.90;99.90;;;;;;4918995;28;20545;-84
2021/01/21 12:39:52;;;;;;;2.27;1.40;;;11.60;99.90;;;;;;4928677;28;20290;-87
2021/01/21 12:42:21;;;;;;;1.87;1.30;;;11.30;99.90;;;;;;4928398;28;20502;-83
2021/01/21 12:44:47;;;;;;;2.17;1.47;;;11.10;99.90;;;;;;4932205;28;20473;-83
2021/01/21 12:47:12;;;;;;;1.50;1.30;;;11.00;99.90;;;;;;4929172;28;20474;-83
2021/01/21 12:49:38;;;;;;;1.63;1.23;;;10.80;99.90;;;;;;4910623;28;21054;-87
2021/01/21 12:52:08;;;;;;;1.57;1.20;;;10.60;99.90;;;;;;4907744;28;20874;-85
2021/01/21 12:54:37;;;;;;;1.70;1.60;;;10.40;99.90;;;;;;4932742;28;20225;-83
2021/01/21 12:57:06;;;;;;;1.90;1.40;;;10.20;99.90;;;;;;4913992;28;20434;-87
2021/01/21 12:59:34;;;;;;;1.60;1.00;;;10.00;99.90;;;;;;4929253;29;20906;-86
2021/01/21 13:02:13;;;;;;;1.50;1.30;;;9.90;99.90;;;;;;4934108;28;20474;-87
2021/01/21 13:04:40;;;;;;;1.30;1.10;;;9.70;99.90;;;;;;4918194;28;20458;-85
2021/01/21 13:07:06;;;;;;;1.80;1.40;;;9.50;99.90;;;;;;4930983;28;20431;-84
2021/01/21 13:09:35;;;;;;;1.40;1.20;;;9.40;99.90;;;;;;4946310;28;20433;-85
2021/01/21 13:12:01;;;;;;;1.27;1.17;;;9.20;99.90;;;;;;4944550;28;20455;-86
2021/01/21 13:14:34;;;;;;;1.50;1.10;;;9.10;99.90;;;;;;4933284;28;20460;-86
2021/01/21 13:17:03;;;;;;;1.57;1.10;;;8.90;99.90;;;;;;4948968;28;20581;-87
2021/01/21 13:19:58;;;;;;;1.40;1.10;;;8.80;99.90;;;;;;4917037;29;21696;-86
2021/01/21 13:22:27;;;;;;;1.20;1.10;;;8.70;99.90;;;;;;4930441;28;20458;-84
2021/01/21 13:24:56;;;;;;;1.30;1.13;;;8.70;99.90;;;;;;4914751;28;20442;-85
2021/01/21 13:27:24;;;;;;;1.50;1.20;;;8.70;99.90;;;;;;4930723;29;20467;-85
2021/01/21 13:29:52;;;;;;;1.33;1.10;;;8.70;99.90;;;;;;4949120;28;20478;-87
2021/01/21 13:32:18;;;;;;;1.40;1.30;;;8.80;99.90;;;;;;4930409;28;20448;-86
2021/01/21 13:35:42;;;;;;;1.43;1.33;;;8.70;99.90;;;;;;4949676;28;20494;-85
2021/01/21 13:42:21;;;;;;;;;;;;;;;;;;;;;
2021/01/21 13:49:09;;;;;;;2.37;1.20;;;8.90;99.90;;;;;;4860722;29;20454;-84
2021/01/21 13:51:43;;;;;;;1.87;1.30;;;8.80;99.90;;;;;;4855008;29;20435;-88
2021/01/21 13:54:32;;;;;;;1.63;1.37;;;8.80;99.90;;;;;;4818542;29;20464;-86
2021/01/21 13:57:22;;;;;;;;;;;;;;;;;;;;;
2021/01/21 14:00:00;;;;;;;2.03;1.30;;;8.70;99.90;;;;;;4822648;29;20437;-86